Time;durP1;ratioP1;P1;durP2;ratioP2;P2;SDS_P1;SDS_P2;PMS_P1;PMS_P2;Temp;Humidity;BMP_temperature;BMP_pressure;BME280_temperature;BME280_humidity;BME280_pressure;Samples;Min_cycle;Max_cycle;Signal;HPM_P1;HPM_P2
2022/02/16 00:01:25;;;;;;;48.90;28.85;;;6.50;99.90;;;;;;5030722;28;20060;-68
2022/02/16 00:04:29;;;;;;;48.20;29.25;;;6.50;99.90;;;;;;5030600;28;20052;-68
2022/02/16 00:07:35;;;;;;;77.03;49.15;;;6.50;99.90;;;;;;5030433;28;20048;-68
2022/02/16 00:10:39;;;;;;;58.20;34.25;;;6.50;99.90;;;;;;5030279;28;20048;-68
2022/02/16 00:13:44;;;;;;;49.42;29.48;;;6.50;99.90;;;;;;5030144;28;20048;-68
2022/02/16 00:16:50;;;;;;;51.90;29.15;;;6.60;99.90;;;;;;5030194;28;20045;-68
2022/02/16 00:19:54;;;;;;;53.83;29.95;;;6.50;99.90;;;;;;5051867;28;20049;-68
2022/02/16 00:22:58;;;;;;;50.72;29.55;;;6.50;99.90;;;;;;5030474;28;20045;-67
2022/02/16 00:26:02;;;;;;;45.90;28.20;;;6.50;99.90;;;;;;5029009;28;20036;-68
2022/02/16 00:29:07;;;;;;;53.53;30.45;;;6.40;99.90;;;;;;5029389;28;20048;-68
2022/02/16 00:32:13;;;;;;;47.92;28.98;;;6.40;99.90;;;;;;5030244;28;20048;-68
2022/02/16 00:35:18;;;;;;;52.20;31.02;;;6.40;99.90;;;;;;5030182;28;20037;-68
2022/02/16 00:38:23;;;;;;;52.40;29.15;;;6.30;99.90;;;;;;5031179;28;20044;-68
2022/02/16 00:41:32;;;;;;;48.35;28.75;;;6.30;99.90;;;;;;5030533;28;20032;-70
2022/02/16 00:44:35;;;;;;;54.38;30.50;;;6.30;99.90;;;;;;5031067;28;20052;-68
2022/02/16 00:47:41;;;;;;;51.67;28.70;;;6.30;99.90;;;;;;5029100;28;20594;-69
2022/02/16 00:50:47;;;;;;;55.83;31.63;;;6.30;99.90;;;;;;5030197;28;20048;-68
2022/02/16 00:53:51;;;;;;;59.65;31.25;;;6.20;99.90;;;;;;5052012;28;20040;-70
2022/02/16 00:57:02;;;;;;;58.50;31.95;;;6.10;99.90;;;;;;5052668;28;20048;-68
2022/02/16 01:00:09;;;;;;;55.35;30.98;;;6.20;99.90;;;;;;5017352;28;20045;-67
2022/02/16 01:03:21;;;;;;;76.00;38.17;;;6.20;99.90;;;;;;5021952;28;20044;-68
2022/02/16 01:06:27;;;;;;;67.72;34.80;;;6.20;99.90;;;;;;5032830;28;20057;-70
2022/02/16 01:09:32;;;;;;;66.03;37.63;;;6.20;99.90;;;;;;5032599;28;20400;-70
2022/02/16 01:12:36;;;;;;;78.85;40.53;;;6.20;99.90;;;;;;5032940;28;20052;-69
2022/02/16 01:15:40;;;;;;;77.53;40.10;;;6.20;99.90;;;;;;5033184;28;20047;-70
2022/02/16 01:18:44;;;;;;;74.22;39.83;;;6.30;99.90;;;;;;5032801;28;20048;-70
2022/02/16 01:21:48;;;;;;;96.32;40.10;;;6.30;99.90;;;;;;5021971;28;20040;-70
2022/02/16 01:24:55;;;;;;;101.50;42.78;;;6.30;99.90;;;;;;5034146;28;20380;-70
2022/02/16 01:28:02;;;;;;;101.25;42.70;;;6.30;99.90;;;;;;5043947;28;20049;-70
2022/02/16 01:31:11;;;;;;;84.32;39.13;;;6.30;99.90;;;;;;5032402;28;20045;-67
2022/02/16 01:34:21;;;;;;;80.38;37.97;;;6.30;99.90;;;;;;5032491;28;20397;-67
2022/02/16 01:37:25;;;;;;;81.00;38.70;;;6.30;99.90;;;;;;5032704;28;20499;-70
2022/02/16 01:40:29;;;;;;;148.80;44.13;;;6.30;99.90;;;;;;5032122;28;20032;-69
2022/02/16 01:43:35;;;;;;;92.90;41.28;;;6.20;99.90;;;;;;5032608;28;20056;-70
2022/02/16 01:46:54;;;;;;;91.57;39.50;;;6.10;99.90;;;;;;5032405;28;20064;-70
2022/02/16 01:50:02;;;;;;;95.28;38.85;;;6.10;99.90;;;;;;5031935;28;20499;-70
2022/02/16 01:53:10;;;;;;;140.77;40.63;;;6.00;99.90;;;;;;5032172;28;20037;-70
2022/02/16 01:56:15;;;;;;;177.95;44.30;;;6.00;99.90;;;;;;5032106;28;20160;-70
2022/02/16 01:59:24;;;;;;;95.82;38.67;;;6.00;99.90;;;;;;5031550;28;20048;-70
2022/02/16 02:02:51;;;;;;;322.75;51.28;;;6.00;99.90;;;;;;5032482;28;20048;-69
2022/02/16 02:06:08;;;;;;;290.98;54.80;;;6.00;99.90;;;;;;5031961;28;20052;-69
2022/02/16 02:09:14;;;;;;;107.82;43.58;;;5.90;99.90;;;;;;5031629;28;20487;-71
2022/02/16 02:12:18;;;;;;;86.07;42.38;;;5.90;99.90;;;;;;5031768;28;20404;-70
2022/02/16 02:15:25;;;;;;;74.70;39.00;;;5.90;99.90;;;;;;5031207;28;20698;-69
2022/02/16 02:18:41;;;;;;;81.45;41.92;;;5.90;99.90;;;;;;5031078;28;20056;-69
2022/02/16 02:21:49;;;;;;;81.82;39.22;;;5.90;99.90;;;;;;5031664;28;20415;-70
2022/02/16 02:24:52;;;;;;;75.72;39.30;;;5.90;99.90;;;;;;5031509;28;20596;-70
2022/02/16 02:27:56;;;;;;;75.15;37.85;;;5.90;99.90;;;;;;5031029;28;20044;-70
2022/02/16 02:31:02;;;;;;;75.75;41.55;;;5.90;99.90;;;;;;5030310;28;20056;-70
2022/02/16 02:34:07;;;;;;;71.82;37.03;;;5.90;99.90;;;;;;5030130;28;20352;-70
2022/02/16 02:37:11;;;;;;;67.30;36.10;;;5.90;99.90;;;;;;5031038;28;20503;-71
2022/02/16 02:40:15;;;;;;;66.18;35.58;;;5.80;99.90;;;;;;5052500;28;20041;-70
2022/02/16 02:43:20;;;;;;;61.80;33.97;;;5.80;99.90;;;;;;5030064;28;20033;-69
2022/02/16 02:46:24;;;;;;;63.03;34.72;;;5.70;99.90;;;;;;5031175;28;20044;-70
2022/02/16 02:49:37;;;;;;;57.92;32.08;;;5.70;99.90;;;;;;5030829;28;20040;-70
2022/02/16 02:52:41;;;;;;;59.85;32.95;;;5.70;99.90;;;;;;5030044;28;20056;-70
2022/02/16 02:55:47;;;;;;;60.75;33.15;;;5.70;99.90;;;;;;5030279;28;20064;-71
2022/02/16 02:58:52;;;;;;;55.45;32.35;;;5.70;99.90;;;;;;5030500;28;20056;-70
2022/02/16 03:01:57;;;;;;;55.83;31.23;;;5.70;99.90;;;;;;5030558;28;20064;-70
2022/02/16 03:05:02;;;;;;;57.45;31.48;;;5.70;99.90;;;;;;5030936;28;20048;-70
2022/02/16 03:08:07;;;;;;;51.97;30.58;;;5.70;99.90;;;;;;5029557;28;20048;-69
2022/02/16 03:11:16;;;;;;;61.42;32.97;;;5.70;99.90;;;;;;5030694;28;20056;-69
2022/02/16 03:14:20;;;;;;;52.10;30.70;;;5.70;99.90;;;;;;5029535;28;20523;-70
2022/02/16 03:17:27;;;;;;;50.00;29.13;;;5.70;99.90;;;;;;5030506;28;20052;-69
2022/02/16 03:20:31;;;;;;;51.80;28.08;;;5.70;99.90;;;;;;5029630;28;20267;-70
2022/02/16 03:23:36;;;;;;;52.10;30.13;;;5.70;99.90;;;;;;5030135;28;20064;-70
2022/02/16 03:26:40;;;;;;;54.05;28.50;;;5.70;99.90;;;;;;5029466;28;20044;-70
2022/02/16 03:29:45;;;;;;;45.60;25.08;;;5.60;99.90;;;;;;4982004;28;1381102;-70
2022/02/16 03:32:49;;;;;;;42.38;25.00;;;5.60;99.90;;;;;;5031129;28;20045;-70
2022/02/16 03:35:53;;;;;;;39.63;22.23;;;5.70;99.90;;;;;;5031599;28;20060;-69
2022/02/16 03:38:58;;;;;;;33.75;20.42;;;5.70;99.90;;;;;;5030607;28;20389;-70
2022/02/16 03:42:08;;;;;;;39.05;19.88;;;5.70;99.90;;;;;;5030654;28;20117;-70
2022/02/16 03:45:12;;;;;;;33.35;18.95;;;5.60;99.90;;;;;;5032232;28;20251;-71
2022/02/16 03:48:27;;;;;;;31.50;18.92;;;5.60;99.90;;;;;;5021094;28;20049;-70
2022/02/16 03:51:33;;;;;;;29.73;17.90;;;5.60;99.90;;;;;;5030311;28;20389;-69
2022/02/16 03:54:38;;;;;;;30.27;18.52;;;5.50;99.90;;;;;;5030978;28;20056;-70
2022/02/16 03:57:44;;;;;;;28.52;16.55;;;5.50;99.90;;;;;;5030128;28;20048;-70
2022/02/16 04:00:49;;;;;;;29.52;17.60;;;5.40;99.90;;;;;;5029801;28;20134;-70
2022/02/16 04:03:54;;;;;;;30.02;17.77;;;5.40;99.90;;;;;;5029623;28;20048;-67
2022/02/16 04:06:57;;;;;;;24.90;16.08;;;5.30;99.90;;;;;;5029898;28;20060;-70
2022/02/16 04:10:01;;;;;;;26.25;16.92;;;5.20;99.90;;;;;;5029267;28;20044;-70
2022/02/16 04:13:05;;;;;;;29.42;17.83;;;5.00;99.90;;;;;;5029923;28;20187;-70
2022/02/16 04:16:12;;;;;;;32.13;17.77;;;4.90;99.90;;;;;;5029658;28;20048;-70
2022/02/16 04:19:16;;;;;;;31.05;18.77;;;4.70;99.90;;;;;;5052214;28;20040;-70
2022/02/16 04:22:20;;;;;;;32.05;19.02;;;4.70;99.90;;;;;;5029710;28;20037;-69
2022/02/16 04:25:24;;;;;;;33.75;19.50;;;4.50;99.90;;;;;;5029679;28;20054;-70
2022/02/16 04:28:29;;;;;;;37.50;20.02;;;4.40;99.90;;;;;;5029159;28;20053;-70
2022/02/16 04:31:35;;;;;;;36.33;21.08;;;4.30;99.90;;;;;;5029743;28;20395;-70
2022/02/16 04:34:39;;;;;;;40.30;20.92;;;4.30;99.90;;;;;;5029202;28;20056;-69
2022/02/16 04:37:43;;;;;;;34.67;20.77;;;4.20;99.90;;;;;;5017151;28;20053;-70
2022/02/16 04:40:47;;;;;;;42.20;22.45;;;4.20;99.90;;;;;;5028874;28;20389;-70
2022/02/16 04:43:51;;;;;;;37.05;21.40;;;4.10;99.90;;;;;;5029109;28;20065;-70
2022/02/16 04:46:55;;;;;;;38.65;22.00;;;4.10;99.90;;;;;;5029989;28;20045;-70
2022/02/16 04:50:03;;;;;;;43.25;23.10;;;4.10;99.90;;;;;;5051410;28;20048;-70
2022/02/16 04:53:08;;;;;;;33.30;19.85;;;4.10;99.90;;;;;;5029109;28;20053;-69
2022/02/16 04:56:14;;;;;;;34.35;20.50;;;4.10;99.90;;;;;;5029163;28;20052;-70
2022/02/16 04:59:19;;;;;;;36.13;19.83;;;4.10;99.90;;;;;;5028548;28;20218;-69
2022/02/16 05:02:23;;;;;;;29.40;17.40;;;4.00;99.90;;;;;;5028921;28;20064;-71
2022/02/16 05:05:28;;;;;;;41.17;21.23;;;4.10;99.90;;;;;;5030059;28;20044;-70
2022/02/16 05:08:32;;;;;;;44.47;23.75;;;4.00;99.90;;;;;;5028533;28;20045;-70
2022/02/16 05:11:38;;;;;;;45.08;23.48;;;4.00;99.90;;;;;;5028680;28;20117;-69
2022/02/16 05:14:45;;;;;;;48.13;25.45;;;4.10;99.90;;;;;;5028891;28;20068;-69
2022/02/16 05:17:51;;;;;;;45.80;26.40;;;4.10;99.90;;;;;;5051637;28;20036;-69
2022/02/16 05:21:29;;;;;;;50.80;27.33;;;4.20;99.90;;;;;;5029546;28;20060;-70
2022/02/16 05:24:34;;;;;;;60.90;28.85;;;4.20;99.90;;;;;;5028438;28;20068;-69
2022/02/16 05:27:38;;;;;;;55.83;29.13;;;4.30;99.90;;;;;;5028756;28;20040;-70
2022/02/16 05:30:42;;;;;;;51.60;27.88;;;4.30;99.90;;;;;;5027080;28;20480;-70
2022/02/16 05:33:48;;;;;;;46.63;25.42;;;4.40;99.90;;;;;;5028516;28;20052;-69
2022/02/16 05:36:57;;;;;;;48.85;26.33;;;4.40;99.90;;;;;;5017033;28;20045;-70
2022/02/16 05:40:04;;;;;;;50.53;27.08;;;4.40;99.90;;;;;;5028267;28;20413;-70
2022/02/16 05:43:12;;;;;;;44.42;25.67;;;4.50;99.90;;;;;;5027659;28;20496;-69
2022/02/16 05:46:16;;;;;;;49.95;27.60;;;4.50;99.90;;;;;;5028494;28;20507;-69
2022/02/16 05:49:20;;;;;;;48.63;30.30;;;4.40;99.90;;;;;;5030654;28;20040;-69
2022/02/16 05:52:25;;;;;;;40.40;25.27;;;4.40;99.90;;;;;;5032050;28;20044;-70
2022/02/16 05:55:29;;;;;;;41.55;23.23;;;4.30;99.90;;;;;;5031804;28;20397;-70
2022/02/16 05:58:34;;;;;;;33.75;20.83;;;4.20;99.90;;;;;;5031926;28;20052;-70
2022/02/16 06:01:39;;;;;;;36.08;20.42;;;4.00;99.90;;;;;;5031996;28;20381;-69
2022/02/16 06:04:43;;;;;;;36.28;20.17;;;3.90;99.90;;;;;;5032351;28;20053;-69
2022/02/16 06:07:47;;;;;;;43.63;24.40;;;3.70;99.90;;;;;;5031927;28;20045;-70
2022/02/16 06:10:54;;;;;;;70.95;29.70;;;3.60;99.90;;;;;;5032084;28;20088;-69
2022/02/16 06:13:59;;;;;;;55.78;27.67;;;3.50;99.90;;;;;;5054613;28;20158;-70
2022/02/16 06:17:03;;;;;;;44.83;23.33;;;3.50;99.90;;;;;;5031602;28;20041;-69
2022/02/16 06:20:08;;;;;;;47.22;24.17;;;3.40;99.90;;;;;;5031877;28;20041;-69
2022/02/16 06:23:16;;;;;;;49.13;23.95;;;3.40;99.90;;;;;;5032611;28;20052;-70
2022/02/16 06:26:20;;;;;;;46.33;23.60;;;3.40;99.90;;;;;;5032491;28;20396;-70
2022/02/16 06:29:24;;;;;;;43.65;23.90;;;3.40;99.90;;;;;;5031886;28;20399;-70
2022/02/16 06:32:55;;;;;;;72.47;30.65;;;3.40;99.90;;;;;;5032214;28;20043;-69
2022/02/16 06:36:00;;;;;;;482.67;56.53;;;3.30;99.90;;;;;;5032259;28;20048;-71
2022/02/16 06:39:06;;;;;;;470.65;52.80;;;3.30;99.90;;;;;;5054078;28;20044;-70
2022/02/16 06:42:11;;;;;;;108.38;31.95;;;3.30;99.90;;;;;;5054637;28;20044;-70
2022/02/16 06:45:15;;;;;;;89.05;37.50;;;3.30;99.90;;;;;;5031563;28;20084;-69
2022/02/16 06:48:21;;;;;;;166.48;41.08;;;3.40;99.90;;;;;;5031236;28;20048;-69
2022/02/16 06:51:26;;;;;;;294.30;40.17;;;3.50;99.90;;;;;;5019637;28;20048;-70
2022/02/16 06:54:31;;;;;;;126.57;31.77;;;3.90;99.90;;;;;;5031778;28;20048;-71
2022/02/16 06:57:36;;;;;;;192.75;31.42;;;4.60;99.90;;;;;;5028515;28;20041;-70
2022/02/16 07:00:43;;;;;;;56.25;19.60;;;6.20;99.90;;;;;;5012053;28;21060;-67
2022/02/16 07:03:48;;;;;;;85.75;22.52;;;7.40;99.90;;;;;;5023254;28;20020;-69
2022/02/16 07:06:59;;;;;;;64.15;21.40;;;7.80;99.90;;;;;;5029949;28;21751;-70
2022/02/16 07:10:04;;;;;;;35.35;21.02;;;8.80;99.90;;;;;;5029423;28;20037;-69
2022/02/16 07:13:08;;;;;;;32.13;21.60;;;11.20;99.90;;;;;;5029245;28;20040;-67
2022/02/16 07:16:13;;;;;;;16.30;11.52;;;13.40;99.90;;;;;;5022844;28;20083;-67
2022/02/16 07:19:22;;;;;;;12.30;9.13;;;14.60;99.90;;;;;;5028457;28;20044;-67
2022/02/16 07:22:42;;;;;;;9.70;7.38;;;15.00;99.90;;;;;;5024679;28;20041;-70
2022/02/16 07:25:46;;;;;;;13.57;7.80;;;14.90;99.90;;;;;;5028851;28;20048;-70
2022/02/16 07:28:53;;;;;;;10.25;7.88;;;15.10;99.90;;;;;;5028284;28;20519;-68
2022/02/16 07:32:00;;;;;;;10.68;8.70;;;15.80;99.90;;;;;;5028249;28;20061;-68
2022/02/16 07:35:06;;;;;;;11.93;8.80;;;16.60;99.90;;;;;;5028724;28;20044;-68
2022/02/16 07:38:11;;;;;;;11.30;8.98;;;14.40;99.90;;;;;;5028357;28;20029;-67
2022/02/16 07:41:15;;;;;;;11.63;8.90;;;14.10;99.90;;;;;;5023651;28;20048;-68
2022/02/16 07:44:36;;;;;;;13.07;9.57;;;13.20;99.90;;;;;;5025028;28;20048;-68
2022/02/16 07:47:44;;;;;;;12.48;9.75;;;12.30;99.90;;;;;;5028143;28;20044;-68
2022/02/16 07:50:49;;;;;;;13.65;10.18;;;11.70;99.90;;;;;;5026690;28;20041;-69
2022/02/16 07:54:12;;;;;;;11.75;8.57;;;14.20;99.90;;;;;;5027254;28;20056;-68
2022/02/16 07:57:22;;;;;;;12.40;8.50;;;17.00;99.90;;;;;;5025491;28;20044;-68
2022/02/16 08:00:31;;;;;;;10.73;8.82;;;17.30;99.90;;;;;;5020990;28;20037;-67
2022/02/16 08:03:44;;;;;;;11.43;8.80;;;16.30;99.90;;;;;;5021218;28;20052;-68
2022/02/16 08:06:48;;;;;;;13.38;9.63;;;14.60;99.90;;;;;;5023714;28;20049;-68
2022/02/16 08:09:53;;;;;;;13.82;9.75;;;14.80;99.90;;;;;;5034025;28;20056;-68
2022/02/16 08:12:59;;;;;;;16.27;11.20;;;16.20;99.90;;;;;;5028436;28;20052;-67
2022/02/16 08:16:11;;;;;;;14.65;10.88;;;16.40;99.90;;;;;;5034881;28;20419;-68
2022/02/16 08:19:25;;;;;;;14.70;10.82;;;16.20;99.90;;;;;;5024706;28;20036;-69
2022/02/16 08:22:29;;;;;;;13.82;10.55;;;16.40;99.90;;;;;;5022916;28;20072;-70
2022/02/16 08:25:34;;;;;;;12.13;9.65;;;17.10;99.90;;;;;;5028426;28;20048;-70
2022/02/16 08:28:45;;;;;;;11.85;9.13;;;17.90;99.90;;;;;;5026892;28;20036;-69
2022/02/16 08:31:49;;;;;;;9.80;8.35;;;18.30;99.90;;;;;;5025633;28;20040;-70
2022/02/16 08:34:59;;;;;;;9.93;7.50;;;18.90;99.90;;;;;;5022075;28;20049;-70
2022/02/16 08:38:04;;;;;;;8.25;6.45;;;19.80;98.50;;;;;;5029100;28;20065;-70
2022/02/16 08:41:10;;;;;;;9.23;8.00;;;20.70;97.20;;;;;;5028368;28;20037;-70
2022/02/16 08:44:14;;;;;;;11.85;9.98;;;21.30;96.00;;;;;;5027316;28;20052;-70
2022/02/16 08:47:18;;;;;;;12.52;9.77;;;17.90;96.80;;;;;;5020388;28;20040;-70
2022/02/16 08:50:23;;;;;;;16.10;13.27;;;18.20;98.00;;;;;;5029965;28;20048;-70
2022/02/16 08:53:27;;;;;;;21.30;16.05;;;19.00;98.90;;;;;;5025761;28;20064;-70
2022/02/16 08:56:31;;;;;;;21.42;16.50;;;18.20;99.20;;;;;;5028324;28;20040;-70
2022/02/16 08:59:36;;;;;;;24.58;18.73;;;17.40;99.90;;;;;;5024954;28;20032;-70
2022/02/16 09:02:41;;;;;;;27.23;20.98;;;16.10;99.90;;;;;;5026750;28;20036;-70
2022/02/16 09:05:45;;;;;;;23.40;17.00;;;13.70;99.90;;;;;;5028615;28;20076;-70
2022/02/16 09:08:49;;;;;;;20.25;15.10;;;13.70;99.90;;;;;;5028771;28;20036;-70
2022/02/16 09:11:53;;;;;;;20.70;16.13;;;15.50;99.90;;;;;;5028264;28;20044;-70
2022/02/16 09:14:58;;;;;;;24.40;17.55;;;15.40;99.90;;;;;;5028394;28;20072;-69
2022/02/16 09:18:05;;;;;;;18.80;14.25;;;13.90;99.90;;;;;;5029201;28;21038;-69
2022/02/16 09:21:10;;;;;;;18.90;14.40;;;13.50;99.90;;;;;;5025202;28;20029;-69
2022/02/16 09:24:15;;;;;;;18.20;13.75;;;14.10;99.90;;;;;;5028772;28;20148;-70
2022/02/16 09:27:19;;;;;;;16.30;12.93;;;15.10;99.90;;;;;;5026569;28;20028;-70
2022/02/16 09:30:24;;;;;;;17.35;13.50;;;15.50;99.90;;;;;;5026128;28;20063;-70
2022/02/16 09:33:28;;;;;;;15.68;12.75;;;15.10;99.90;;;;;;5025966;28;20033;-70
2022/02/16 09:36:33;;;;;;;17.38;13.63;;;14.90;99.90;;;;;;5033561;28;20040;-69
2022/02/16 09:39:37;;;;;;;19.52;14.15;;;14.10;99.90;;;;;;5024857;28;20389;-70
2022/02/16 09:42:41;;;;;;;17.25;13.50;;;13.40;99.90;;;;;;5028244;28;20048;-70
2022/02/16 09:45:46;;;;;;;17.10;12.57;;;14.30;99.90;;;;;;5030888;28;20500;-70
2022/02/16 09:48:50;;;;;;;16.00;12.30;;;17.90;99.90;;;;;;5025602;28;20057;-70
2022/02/16 09:51:56;;;;;;;12.93;10.95;;;19.60;99.90;;;;;;5030304;28;20068;-70
2022/02/16 09:55:01;;;;;;;13.20;10.90;;;20.50;97.50;;;;;;5027523;28;20056;-70
2022/02/16 09:58:06;;;;;;;13.25;10.48;;;20.70;97.70;;;;;;5023201;28;20056;-70
2022/02/16 10:01:13;;;;;;;13.07;10.80;;;23.30;94.80;;;;;;5025368;28;20392;-71
2022/02/16 10:04:17;;;;;;;10.90;9.63;;;21.70;96.70;;;;;;5025752;28;20048;-71
2022/02/16 10:07:30;;;;;;;9.90;8.90;;;24.10;93.10;;;;;;5021878;28;20060;-70
2022/02/16 10:10:35;;;;;;;11.32;9.45;;;23.30;91.80;;;;;;5030051;28;20048;-70
2022/02/16 10:13:41;;;;;;;11.15;9.52;;;25.10;90.40;;;;;;5031280;28;20064;-70
2022/02/16 10:16:47;;;;;;;9.23;8.20;;;25.60;88.50;;;;;;5029200;28;20060;-71
2022/02/16 10:20:01;;;;;;;9.40;8.15;;;24.90;86.90;;;;;;5027345;28;20064;-70
2022/02/16 10:23:05;;;;;;;9.70;7.75;;;26.10;88.00;;;;;;5028242;28;20041;-71
2022/02/16 10:26:09;;;;;;;11.68;8.55;;;25.10;89.40;;;;;;5034541;28;20048;-70
2022/02/16 10:29:30;;;;;;;8.38;7.05;;;23.40;90.70;;;;;;5015180;28;20060;-70
2022/02/16 10:32:35;;;;;;;7.35;6.53;;;20.50;92.00;;;;;;5023134;28;20056;-70
2022/02/16 10:35:39;;;;;;;8.02;6.40;;;20.80;92.10;;;;;;5025306;28;20048;-69
2022/02/16 10:39:13;;;;;;;7.47;5.60;;;19.50;93.10;;;;;;5030918;28;20040;-69
2022/02/16 10:42:21;;;;;;;6.15;5.03;;;22.20;93.30;;;;;;5031957;28;20044;-69
2022/02/16 10:45:27;;;;;;;6.78;5.15;;;24.10;90.90;;;;;;5029068;28;20048;-69
2022/02/16 10:48:32;;;;;;;5.13;4.55;;;24.60;87.40;;;;;;5029726;28;20048;-69
2022/02/16 10:51:38;;;;;;;5.53;4.82;;;20.30;86.50;;;;;;5027883;28;20574;-69
2022/02/16 10:55:00;;;;;;;7.75;6.00;;;18.00;93.90;;;;;;5031290;28;20056;-68
2022/02/16 10:58:06;;;;;;;7.80;5.45;;;18.50;94.90;;;;;;5024035;28;20056;-69
2022/02/16 11:01:11;;;;;;;6.22;4.70;;;18.90;94.20;;;;;;5029485;28;20037;-68
2022/02/16 11:04:16;;;;;;;5.93;4.93;;;19.00;94.70;;;;;;5026299;28;20491;-68
2022/02/16 11:07:22;;;;;;;4.72;3.75;;;18.00;94.60;;;;;;5029612;28;20040;-69
2022/02/16 11:10:31;;;;;;;8.43;4.43;;;17.50;94.60;;;;;;5031099;28;20052;-69
2022/02/16 11:13:37;;;;;;;8.85;3.63;;;20.40;92.10;;;;;;5031081;28;20060;-69
2022/02/16 11:16:41;;;;;;;5.43;3.88;;;21.10;88.50;;;;;;5027289;28;20056;-69
2022/02/16 11:19:46;;;;;;;6.00;3.28;;;21.40;90.60;;;;;;5030907;28;20044;-69
2022/02/16 11:22:57;;;;;;;1.83;1.30;;;20.10;90.80;;;;;;5027560;28;20036;-69
2022/02/16 11:26:27;;;;;;;2.28;1.90;;;21.40;88.20;;;;;;5028613;28;20052;-69
2022/02/16 11:29:38;;;;;;;1.75;1.30;;;22.20;85.30;;;;;;5029966;28;20044;-69
2022/02/16 11:32:42;;;;;;;2.15;1.35;;;21.70;84.30;;;;;;5025849;28;20045;-69
2022/02/16 11:35:52;;;;;;;2.65;2.25;;;23.70;79.00;;;;;;5026880;28;20397;-69
2022/02/16 11:38:57;;;;;;;2.08;1.75;;;22.40;82.00;;;;;;5025683;28;20072;-69
2022/02/16 11:42:01;;;;;;;1.83;1.60;;;24.90;81.10;;;;;;5026044;28;20045;-70
2022/02/16 11:45:09;;;;;;;2.00;1.30;;;26.00;77.60;;;;;;5028409;28;20040;-69
2022/02/16 11:48:35;;;;;;;2.22;1.40;;;21.90;76.80;;;;;;5022924;28;20366;-69
2022/02/16 11:51:39;;;;;;;1.60;1.35;;;21.40;81.90;;;;;;5026588;28;20064;-69
2022/02/16 11:54:47;;;;;;;2.08;1.52;;;21.50;79.90;;;;;;5025592;28;20396;-69
2022/02/16 11:57:55;;;;;;;2.45;1.67;;;22.10;80.10;;;;;;5020583;28;20040;-69
2022/02/16 12:01:01;;;;;;;1.77;1.25;;;22.40;80.90;;;;;;5024791;28;20032;-69
2022/02/16 12:04:05;;;;;;;2.17;1.30;;;24.40;78.00;;;;;;5024177;28;20068;-69
2022/02/16 12:07:27;;;;;;;1.25;1.10;;;25.10;75.10;;;;;;5025560;28;20048;-68
2022/02/16 12:10:43;;;;;;;1.30;1.10;;;22.40;75.60;;;;;;5028659;28;20040;-68
2022/02/16 12:14:14;;;;;;;1.42;1.08;;;19.10;78.20;;;;;;5027879;28;20504;-68
2022/02/16 12:17:18;;;;;;;4.50;1.10;;;20.90;86.90;;;;;;5021141;28;20380;-69
2022/02/16 12:20:27;;;;;;;1.65;1.00;;;25.20;80.80;;;;;;5025497;28;20041;-69
2022/02/16 12:23:37;;;;;;;1.15;0.90;;;27.10;72.50;;;;;;5024503;28;20040;-69
2022/02/16 12:26:43;;;;;;;1.08;0.90;;;26.90;72.30;;;;;;5024096;28;20471;-68
2022/02/16 12:29:48;;;;;;;1.85;1.40;;;24.20;70.80;;;;;;5027671;28;20056;-69
2022/02/16 12:32:52;;;;;;;2.72;1.10;;;23.90;72.30;;;;;;5027130;28;20056;-69
2022/02/16 12:35:56;;;;;;;1.13;1.02;;;23.70;77.80;;;;;;5029333;28;20086;-69
2022/02/16 12:39:02;;;;;;;3.25;1.20;;;25.80;77.30;;;;;;5028886;28;20041;-69
2022/02/16 12:42:09;;;;;;;1.88;1.00;;;26.60;74.10;;;;;;5028583;28;20068;-69
2022/02/16 12:45:20;;;;;;;3.35;1.25;;;28.60;73.80;;;;;;5024843;28;20048;-70
2022/02/16 12:48:25;;;;;;;1.90;1.45;;;29.20;71.10;;;;;;5023696;28;20057;-70
2022/02/16 12:51:36;;;;;;;2.70;1.10;;;30.10;69.70;;;;;;5011570;28;20045;-69
2022/02/16 12:54:41;;;;;;;1.63;1.30;;;29.20;68.30;;;;;;5028579;28;20052;-68
2022/02/16 12:57:45;;;;;;;1.45;1.33;;;24.90;70.50;;;;;;5025477;28;20049;-69
2022/02/16 13:00:52;;;;;;;2.10;1.75;;;26.60;70.80;;;;;;5026203;28;20103;-68
2022/02/16 13:04:04;;;;;;;3.50;3.03;;;27.90;67.40;;;;;;5030739;28;20033;-69
2022/02/16 13:07:09;;;;;;;2.20;1.30;;;23.80;69.80;;;;;;5029339;28;20049;-69
2022/02/16 13:10:20;;;;;;;1.20;1.05;;;25.50;69.30;;;;;;5033227;28;20048;-69
2022/02/16 13:13:28;;;;;;;1.70;1.10;;;27.20;71.50;;;;;;5030540;28;20048;-69
2022/02/16 13:16:32;;;;;;;1.25;1.00;;;27.60;67.90;;;;;;5025207;28;20045;-69
2022/02/16 13:19:47;;;;;;;4.60;1.10;;;29.00;67.20;;;;;;5030285;28;20055;-69
2022/02/16 13:23:06;;;;;;;1.17;1.00;;;30.10;66.90;;;;;;5029795;28;20041;-70
2022/02/16 13:26:13;;;;;;;1.48;1.02;;;31.40;64.40;;;;;;5014237;28;20048;-70
2022/02/16 13:29:18;;;;;;;2.00;1.30;;;31.90;64.60;;;;;;5023284;28;20044;-70
2022/02/16 13:32:35;;;;;;;1.50;0.80;;;31.90;63.70;;;;;;5033920;28;20419;-69
2022/02/16 13:35:46;;;;;;;0.98;0.88;;;32.20;60.80;;;;;;5020643;28;20053;-69
2022/02/16 13:38:55;;;;;;;0.70;0.70;;;30.20;60.00;;;;;;5019927;28;20500;-69
2022/02/16 13:42:03;;;;;;;0.95;0.85;;;27.30;60.90;;;;;;5020068;28;20381;-68
2022/02/16 13:45:07;;;;;;;3.97;1.65;;;23.80;66.70;;;;;;5033130;28;20044;-68
2022/02/16 13:48:20;;;;;;;0.90;0.65;;;22.60;69.70;;;;;;5032229;28;20037;-68
2022/02/16 13:51:26;;;;;;;1.50;0.80;;;24.20;67.60;;;;;;5027331;28;20048;-69
2022/02/16 13:54:37;;;;;;;5.07;1.20;;;25.60;66.00;;;;;;5029929;28;20095;-69
2022/02/16 13:57:41;;;;;;;0.80;0.63;;;25.50;66.50;;;;;;5030669;28;20045;-68
2022/02/16 14:00:45;;;;;;;0.82;0.70;;;25.80;63.40;;;;;;5027488;28;20611;-69
2022/02/16 14:04:07;;;;;;;1.30;0.93;;;25.50;63.60;;;;;;5029851;28;20048;-69
2022/02/16 14:07:14;;;;;;;3.58;1.17;;;25.40;65.00;;;;;;5027620;28;20214;-69
2022/02/16 14:10:19;;;;;;;2.30;1.45;;;24.90;67.10;;;;;;5022810;28;20416;-69
2022/02/16 14:13:23;;;;;;;2.47;1.27;;;25.70;69.00;;;;;;5021688;28;20491;-69
2022/02/16 14:16:28;;;;;;;1.95;0.90;;;26.30;67.70;;;;;;5024662;28;20049;-69
2022/02/16 14:19:32;;;;;;;1.42;1.02;;;27.00;64.70;;;;;;5024848;28;20044;-69
2022/02/16 14:22:36;;;;;;;1.00;0.90;;;26.30;66.10;;;;;;5032447;28;20048;-69
2022/02/16 14:25:42;;;;;;;2.78;1.52;;;27.30;66.10;;;;;;5028324;28;20040;-69
2022/02/16 14:28:46;;;;;;;2.95;1.63;;;23.60;70.00;;;;;;5031488;28;20052;-69
2022/02/16 14:31:51;;;;;;;7.15;2.05;;;24.20;68.80;;;;;;5030400;28;20049;-70
2022/02/16 14:35:01;;;;;;;3.20;1.48;;;24.30;68.50;;;;;;5029826;28;20049;-69
2022/02/16 14:38:05;;;;;;;2.38;1.65;;;24.80;69.60;;;;;;5023800;28;20040;-69
2022/02/16 14:41:09;;;;;;;3.58;2.95;;;24.30;68.50;;;;;;5020609;28;20045;-70
2022/02/16 14:44:13;;;;;;;3.28;1.60;;;24.10;70.30;;;;;;5017480;28;20048;-69
2022/02/16 14:47:19;;;;;;;3.47;1.60;;;23.70;70.30;;;;;;5027244;28;20044;-69
2022/02/16 14:50:23;;;;;;;3.97;2.63;;;22.60;70.90;;;;;;5030528;28;20400;-68
2022/02/16 14:53:28;;;;;;;11.23;6.65;;;21.60;73.20;;;;;;5030871;28;20048;-68
2022/02/16 14:56:33;;;;;;;3.03;2.30;;;20.80;76.20;;;;;;5030234;28;20044;-68
2022/02/16 14:59:39;;;;;;;5.85;3.17;;;21.20;75.00;;;;;;5013231;28;20057;-69
2022/02/16 15:02:43;;;;;;;4.07;2.50;;;22.20;75.20;;;;;;5029334;28;20052;-68
2022/02/16 15:05:49;;;;;;;4.40;2.90;;;22.80;73.80;;;;;;5013580;28;20037;-69
2022/02/16 15:08:53;;;;;;;4.28;3.70;;;23.00;74.20;;;;;;5027639;28;20404;-69
2022/02/16 15:11:57;;;;;;;4.68;3.38;;;23.30;73.00;;;;;;5024917;28;20056;-68
2022/02/16 15:15:03;;;;;;;5.65;3.60;;;23.10;72.60;;;;;;5020725;28;20040;-69
2022/02/16 15:18:08;;;;;;;3.92;3.00;;;22.20;74.40;;;;;;5025258;28;20044;-69
2022/02/16 15:21:12;;;;;;;4.68;3.65;;;21.90;74.90;;;;;;5013258;28;20041;-69
2022/02/16 15:24:17;;;;;;;4.70;3.90;;;22.10;75.00;;;;;;5029710;28;20045;-69
2022/02/16 15:27:22;;;;;;;3.67;3.00;;;22.40;75.60;;;;;;5028682;28;20060;-69
2022/02/16 15:30:26;;;;;;;6.68;3.58;;;21.60;74.60;;;;;;5027251;28;20049;-68
2022/02/16 15:33:30;;;;;;;12.23;4.57;;;20.30;76.40;;;;;;5031008;28;20044;-69
2022/02/16 15:36:36;;;;;;;5.47;3.70;;;19.20;80.10;;;;;;5027508;28;20060;-68
2022/02/16 15:39:42;;;;;;;9.32;6.85;;;18.50;82.20;;;;;;5030074;28;20044;-68
2022/02/16 15:42:49;;;;;;;5.45;4.50;;;18.20;83.30;;;;;;5030445;28;20040;-68
2022/02/16 15:45:54;;;;;;;3.85;3.35;;;17.20;84.30;;;;;;5028741;28;20044;-68
2022/02/16 15:49:01;;;;;;;5.30;2.95;;;16.30;87.90;;;;;;5020002;28;20048;-68
2022/02/16 15:52:06;;;;;;;6.05;4.10;;;15.90;90.70;;;;;;5017412;28;20036;-68
2022/02/16 15:55:11;;;;;;;5.88;3.83;;;16.30;90.60;;;;;;5023824;28;20041;-68
2022/02/16 15:58:16;;;;;;;5.97;3.97;;;16.60;89.90;;;;;;5024227;28;20069;-68
2022/02/16 16:01:22;;;;;;;4.75;3.72;;;16.30;90.40;;;;;;5013867;28;20230;-68